sensor_id;sensor_type;location;lat;lon;timestamp;P1;durP1;ratioP1;P2;durP2;ratioP2
52106;SDS011;38105;52.968;5.974;2023-04-29T00:00:40;45.97;;;29.80;;
52106;SDS011;38105;52.968;5.974;2023-04-29T00:03:05;50.15;;;29.10;;
52106;SDS011;38105;52.968;5.974;2023-04-29T00:05:32;44.83;;;27.83;;
52106;SDS011;38105;52.968;5.974;2023-04-29T00:07:58;40.65;;;26.08;;
52106;SDS011;38105;52.968;5.974;2023-04-29T00:10:23;47.55;;;28.48;;
52106;SDS011;38105;52.968;5.974;2023-04-29T00:12:49;50.80;;;29.27;;
52106;SDS011;38105;52.968;5.974;2023-04-29T00:15:15;44.22;;;28.88;;
52106;SDS011;38105;52.968;5.974;2023-04-29T00:17:41;41.85;;;29.30;;
52106;SDS011;38105;52.968;5.974;2023-04-29T00:20:07;43.97;;;26.70;;
52106;SDS011;38105;52.968;5.974;2023-04-29T00:22:34;44.33;;;27.05;;
52106;SDS011;38105;52.968;5.974;2023-04-29T00:25:00;43.13;;;28.25;;
52106;SDS011;38105;52.968;5.974;2023-04-29T00:27:25;46.63;;;28.50;;
52106;SDS011;38105;52.968;5.974;2023-04-29T00:29:52;51.92;;;28.17;;
52106;SDS011;38105;52.968;5.974;2023-04-29T00:32:18;46.25;;;26.90;;
52106;SDS011;38105;52.968;5.974;2023-04-29T00:34:44;39.00;;;25.98;;
52106;SDS011;38105;52.968;5.974;2023-04-29T00:37:10;44.05;;;26.52;;
52106;SDS011;38105;52.968;5.974;2023-04-29T00:39:36;44.20;;;28.60;;
52106;SDS011;38105;52.968;5.974;2023-04-29T00:42:01;40.78;;;27.45;;
52106;SDS011;38105;52.968;5.974;2023-04-29T00:44:27;47.72;;;26.35;;
52106;SDS011;38105;52.968;5.974;2023-04-29T00:46:53;41.50;;;26.45;;
52106;SDS011;38105;52.968;5.974;2023-04-29T00:49:18;42.13;;;25.30;;
52106;SDS011;38105;52.968;5.974;2023-04-29T00:51:45;40.90;;;26.60;;
52106;SDS011;38105;52.968;5.974;2023-04-29T00:54:11;38.00;;;24.10;;
52106;SDS011;38105;52.968;5.974;2023-04-29T00:56:38;47.28;;;27.83;;
52106;SDS011;38105;52.968;5.974;2023-04-29T00:59:08;40.78;;;27.48;;
52106;SDS011;38105;52.968;5.974;2023-04-29T01:01:35;44.33;;;28.30;;
52106;SDS011;38105;52.968;5.974;2023-04-29T01:04:01;41.53;;;25.20;;
52106;SDS011;38105;52.968;5.974;2023-04-29T01:06:42;45.85;;;27.15;;
52106;SDS011;38105;52.968;5.974;2023-04-29T01:14:23;45.33;;;27.10;;
52106;SDS011;38105;52.968;5.974;2023-04-29T01:16:55;47.60;;;27.10;;
52106;SDS011;38105;52.968;5.974;2023-04-29T01:19:38;40.47;;;26.92;;
52106;SDS011;38105;52.968;5.974;2023-04-29T01:22:14;45.40;;;26.35;;
52106;SDS011;38105;52.968;5.974;2023-04-29T01:24:42;42.03;;;25.05;;
52106;SDS011;38105;52.968;5.974;2023-04-29T01:38:41;41.20;;;26.75;;
52106;SDS011;38105;52.968;5.974;2023-04-29T01:41:18;45.85;;;26.15;;
52106;SDS011;38105;52.968;5.974;2023-04-29T01:43:51;42.78;;;26.70;;
52106;SDS011;38105;52.968;5.974;2023-04-29T01:46:20;39.85;;;25.75;;
52106;SDS011;38105;52.968;5.974;2023-04-29T01:48:46;42.78;;;25.80;;
52106;SDS011;38105;52.968;5.974;2023-04-29T01:51:12;36.38;;;24.15;;
52106;SDS011;38105;52.968;5.974;2023-04-29T01:53:38;41.40;;;26.42;;
52106;SDS011;38105;52.968;5.974;2023-04-29T01:56:05;35.70;;;22.35;;
52106;SDS011;38105;52.968;5.974;2023-04-29T01:58:31;35.60;;;24.02;;
52106;SDS011;38105;52.968;5.974;2023-04-29T02:00:57;35.13;;;24.42;;
52106;SDS011;38105;52.968;5.974;2023-04-29T02:03:23;37.75;;;24.17;;
52106;SDS011;38105;52.968;5.974;2023-04-29T02:05:48;37.33;;;23.60;;
52106;SDS011;38105;52.968;5.974;2023-04-29T02:08:15;39.85;;;22.75;;
52106;SDS011;38105;52.968;5.974;2023-04-29T02:10:41;32.65;;;23.45;;
52106;SDS011;38105;52.968;5.974;2023-04-29T02:13:16;32.20;;;22.98;;
52106;SDS011;38105;52.968;5.974;2023-04-29T02:15:42;34.80;;;23.60;;
52106;SDS011;38105;52.968;5.974;2023-04-29T02:18:07;41.13;;;22.75;;
52106;SDS011;38105;52.968;5.974;2023-04-29T02:20:33;38.15;;;24.27;;
52106;SDS011;38105;52.968;5.974;2023-04-29T02:22:58;36.03;;;24.10;;
52106;SDS011;38105;52.968;5.974;2023-04-29T02:25:24;39.83;;;25.33;;
52106;SDS011;38105;52.968;5.974;2023-04-29T02:27:50;39.60;;;24.92;;
52106;SDS011;38105;52.968;5.974;2023-04-29T02:30:15;38.90;;;24.77;;
52106;SDS011;38105;52.968;5.974;2023-04-29T02:32:41;39.90;;;24.55;;
52106;SDS011;38105;52.968;5.974;2023-04-29T02:35:07;43.28;;;27.05;;
52106;SDS011;38105;52.968;5.974;2023-04-29T02:37:33;46.13;;;26.55;;
52106;SDS011;38105;52.968;5.974;2023-04-29T02:39:59;38.72;;;26.02;;
52106;SDS011;38105;52.968;5.974;2023-04-29T02:42:26;38.28;;;26.52;;
52106;SDS011;38105;52.968;5.974;2023-04-29T02:44:51;45.90;;;26.52;;
52106;SDS011;38105;52.968;5.974;2023-04-29T02:47:17;40.95;;;27.60;;
52106;SDS011;38105;52.968;5.974;2023-04-29T02:49:43;44.08;;;28.17;;
52106;SDS011;38105;52.968;5.974;2023-04-29T02:52:08;45.63;;;28.95;;
52106;SDS011;38105;52.968;5.974;2023-04-29T02:54:34;53.88;;;30.52;;
52106;SDS011;38105;52.968;5.974;2023-04-29T02:57:00;47.88;;;29.85;;
52106;SDS011;38105;52.968;5.974;2023-04-29T02:59:26;48.65;;;29.17;;
52106;SDS011;38105;52.968;5.974;2023-04-29T03:01:52;52.78;;;28.88;;
52106;SDS011;38105;52.968;5.974;2023-04-29T03:04:18;52.10;;;32.35;;
52106;SDS011;38105;52.968;5.974;2023-04-29T03:06:44;41.25;;;27.60;;
52106;SDS011;38105;52.968;5.974;2023-04-29T03:09:10;53.95;;;30.33;;
52106;SDS011;38105;52.968;5.974;2023-04-29T03:11:37;45.03;;;29.83;;
52106;SDS011;38105;52.968;5.974;2023-04-29T03:14:03;46.35;;;28.00;;
52106;SDS011;38105;52.968;5.974;2023-04-29T03:16:28;46.17;;;28.30;;
52106;SDS011;38105;52.968;5.974;2023-04-29T03:18:55;45.78;;;31.67;;
52106;SDS011;38105;52.968;5.974;2023-04-29T03:21:22;46.58;;;29.75;;
52106;SDS011;38105;52.968;5.974;2023-04-29T03:23:49;53.20;;;32.25;;
52106;SDS011;38105;52.968;5.974;2023-04-29T03:26:15;44.58;;;29.65;;
52106;SDS011;38105;52.968;5.974;2023-04-29T03:28:41;46.50;;;30.25;;
52106;SDS011;38105;52.968;5.974;2023-04-29T03:31:06;40.97;;;28.98;;
52106;SDS011;38105;52.968;5.974;2023-04-29T03:33:32;44.75;;;27.80;;
52106;SDS011;38105;52.968;5.974;2023-04-29T03:35:58;45.25;;;28.00;;
52106;SDS011;38105;52.968;5.974;2023-04-29T03:38:23;40.38;;;25.98;;
52106;SDS011;38105;52.968;5.974;2023-04-29T03:40:50;46.42;;;27.52;;
52106;SDS011;38105;52.968;5.974;2023-04-29T03:43:16;41.70;;;25.48;;
52106;SDS011;38105;52.968;5.974;2023-04-29T03:45:42;39.13;;;26.30;;
52106;SDS011;38105;52.968;5.974;2023-04-29T03:48:07;46.03;;;27.60;;
52106;SDS011;38105;52.968;5.974;2023-04-29T03:50:34;45.70;;;25.90;;
52106;SDS011;38105;52.968;5.974;2023-04-29T03:53:00;36.05;;;24.42;;
52106;SDS011;38105;52.968;5.974;2023-04-29T03:55:27;43.60;;;25.00;;
52106;SDS011;38105;52.968;5.974;2023-04-29T03:57:52;39.80;;;25.58;;
52106;SDS011;38105;52.968;5.974;2023-04-29T04:00:18;40.03;;;25.35;;
52106;SDS011;38105;52.968;5.974;2023-04-29T04:02:44;42.92;;;26.02;;
52106;SDS011;38105;52.968;5.974;2023-04-29T04:05:10;40.88;;;25.35;;
52106;SDS011;38105;52.968;5.974;2023-04-29T04:07:35;39.30;;;23.65;;
52106;SDS011;38105;52.968;5.974;2023-04-29T04:10:01;40.28;;;24.35;;
52106;SDS011;38105;52.968;5.974;2023-04-29T04:12:26;37.95;;;24.33;;
52106;SDS011;38105;52.968;5.974;2023-04-29T04:14:52;36.00;;;24.02;;
52106;SDS011;38105;52.968;5.974;2023-04-29T04:17:19;35.83;;;23.98;;
52106;SDS011;38105;52.968;5.974;2023-04-29T04:19:45;37.83;;;22.73;;
52106;SDS011;38105;52.968;5.974;2023-04-29T04:22:10;39.45;;;23.77;;
52106;SDS011;38105;52.968;5.974;2023-04-29T04:24:36;41.33;;;24.08;;
52106;SDS011;38105;52.968;5.974;2023-04-29T04:27:02;41.65;;;24.45;;
52106;SDS011;38105;52.968;5.974;2023-04-29T04:29:28;38.05;;;24.95;;
52106;SDS011;38105;52.968;5.974;2023-04-29T04:31:53;37.42;;;24.08;;
52106;SDS011;38105;52.968;5.974;2023-04-29T04:34:19;42.10;;;24.80;;
52106;SDS011;38105;52.968;5.974;2023-04-29T04:36:45;37.83;;;25.38;;
52106;SDS011;38105;52.968;5.974;2023-04-29T04:39:11;40.08;;;25.17;;
52106;SDS011;38105;52.968;5.974;2023-04-29T04:41:37;43.45;;;24.80;;
52106;SDS011;38105;52.968;5.974;2023-04-29T04:44:03;39.28;;;24.80;;
52106;SDS011;38105;52.968;5.974;2023-04-29T04:46:29;43.05;;;24.70;;
52106;SDS011;38105;52.968;5.974;2023-04-29T04:48:55;38.25;;;22.58;;
52106;SDS011;38105;52.968;5.974;2023-04-29T04:51:21;39.53;;;21.88;;
52106;SDS011;38105;52.968;5.974;2023-04-29T04:53:46;34.95;;;20.95;;
52106;SDS011;38105;52.968;5.974;2023-04-29T04:56:12;35.85;;;21.15;;
52106;SDS011;38105;52.968;5.974;2023-04-29T04:58:38;32.15;;;20.48;;
52106;SDS011;38105;52.968;5.974;2023-04-29T05:01:03;34.05;;;18.85;;
52106;SDS011;38105;52.968;5.974;2023-04-29T05:03:29;33.33;;;17.73;;
52106;SDS011;38105;52.968;5.974;2023-04-29T05:05:58;26.95;;;17.40;;
52106;SDS011;38105;52.968;5.974;2023-04-29T05:08:24;24.55;;;16.17;;
52106;SDS011;38105;52.968;5.974;2023-04-29T05:10:50;27.58;;;15.68;;
52106;SDS011;38105;52.968;5.974;2023-04-29T05:13:17;29.70;;;16.20;;
52106;SDS011;38105;52.968;5.974;2023-04-29T05:15:43;23.40;;;13.75;;
52106;SDS011;38105;52.968;5.974;2023-04-29T05:18:09;23.80;;;13.68;;
52106;SDS011;38105;52.968;5.974;2023-04-29T05:20:35;31.52;;;13.60;;
52106;SDS011;38105;52.968;5.974;2023-04-29T05:23:01;21.10;;;12.80;;
52106;SDS011;38105;52.968;5.974;2023-04-29T05:25:28;17.48;;;13.52;;
52106;SDS011;38105;52.968;5.974;2023-04-29T05:27:53;22.88;;;12.65;;
52106;SDS011;38105;52.968;5.974;2023-04-29T05:30:19;23.73;;;12.80;;
52106;SDS011;38105;52.968;5.974;2023-04-29T05:32:45;21.65;;;12.90;;
52106;SDS011;38105;52.968;5.974;2023-04-29T05:35:12;20.92;;;12.70;;
52106;SDS011;38105;52.968;5.974;2023-04-29T05:37:38;21.52;;;12.10;;
52106;SDS011;38105;52.968;5.974;2023-04-29T05:40:04;19.80;;;11.35;;
52106;SDS011;38105;52.968;5.974;2023-04-29T05:42:30;19.50;;;11.65;;
52106;SDS011;38105;52.968;5.974;2023-04-29T05:44:56;19.83;;;11.50;;
52106;SDS011;38105;52.968;5.974;2023-04-29T05:47:21;20.27;;;11.15;;
52106;SDS011;38105;52.968;5.974;2023-04-29T05:49:47;24.15;;;11.77;;
52106;SDS011;38105;52.968;5.974;2023-04-29T05:52:13;16.45;;;11.00;;
52106;SDS011;38105;52.968;5.974;2023-04-29T05:54:39;24.08;;;11.40;;
52106;SDS011;38105;52.968;5.974;2023-04-29T05:57:05;17.15;;;10.00;;
52106;SDS011;38105;52.968;5.974;2023-04-29T05:59:31;19.95;;;9.80;;
52106;SDS011;38105;52.968;5.974;2023-04-29T06:01:58;13.02;;;8.43;;
52106;SDS011;38105;52.968;5.974;2023-04-29T06:04:24;14.70;;;7.28;;
52106;SDS011;38105;52.968;5.974;2023-04-29T06:06:53;10.85;;;7.57;;
52106;SDS011;38105;52.968;5.974;2023-04-29T06:09:21;12.35;;;6.90;;
52106;SDS011;38105;52.968;5.974;2023-04-29T06:11:49;15.13;;;7.00;;
52106;SDS011;38105;52.968;5.974;2023-04-29T06:14:15;13.00;;;6.70;;
52106;SDS011;38105;52.968;5.974;2023-04-29T06:16:41;13.10;;;5.47;;
52106;SDS011;38105;52.968;5.974;2023-04-29T06:19:07;10.40;;;5.47;;
52106;SDS011;38105;52.968;5.974;2023-04-29T06:21:33;12.55;;;6.97;;
52106;SDS011;38105;52.968;5.974;2023-04-29T06:23:58;12.65;;;6.30;;
52106;SDS011;38105;52.968;5.974;2023-04-29T06:26:24;12.70;;;6.00;;
52106;SDS011;38105;52.968;5.974;2023-04-29T06:28:50;12.55;;;5.95;;
52106;SDS011;38105;52.968;5.974;2023-04-29T06:31:15;12.05;;;6.07;;
52106;SDS011;38105;52.968;5.974;2023-04-29T06:33:41;11.48;;;5.90;;
52106;SDS011;38105;52.968;5.974;2023-04-29T06:36:07;14.80;;;5.80;;
52106;SDS011;38105;52.968;5.974;2023-04-29T06:38:32;12.73;;;5.95;;
52106;SDS011;38105;52.968;5.974;2023-04-29T06:40:58;13.90;;;5.85;;
52106;SDS011;38105;52.968;5.974;2023-04-29T06:43:27;9.52;;;5.70;;
52106;SDS011;38105;52.968;5.974;2023-04-29T06:45:53;12.07;;;5.38;;
52106;SDS011;38105;52.968;5.974;2023-04-29T06:48:18;9.85;;;5.72;;
52106;SDS011;38105;52.968;5.974;2023-04-29T06:50:48;10.15;;;5.63;;
52106;SDS011;38105;52.968;5.974;2023-04-29T06:53:17;10.88;;;5.50;;
52106;SDS011;38105;52.968;5.974;2023-04-29T06:55:43;10.98;;;5.45;;
52106;SDS011;38105;52.968;5.974;2023-04-29T06:58:10;11.68;;;6.57;;
52106;SDS011;38105;52.968;5.974;2023-04-29T07:00:37;9.45;;;5.90;;
52106;SDS011;38105;52.968;5.974;2023-04-29T07:03:03;12.50;;;5.80;;
52106;SDS011;38105;52.968;5.974;2023-04-29T07:05:29;11.82;;;6.13;;
52106;SDS011;38105;52.968;5.974;2023-04-29T07:07:54;12.23;;;5.78;;
52106;SDS011;38105;52.968;5.974;2023-04-29T07:10:20;9.93;;;5.47;;
52106;SDS011;38105;52.968;5.974;2023-04-29T07:12:46;12.20;;;5.35;;
52106;SDS011;38105;52.968;5.974;2023-04-29T07:15:11;12.73;;;5.88;;
52106;SDS011;38105;52.968;5.974;2023-04-29T07:17:37;13.10;;;6.18;;
52106;SDS011;38105;52.968;5.974;2023-04-29T07:20:03;13.15;;;5.95;;
52106;SDS011;38105;52.968;5.974;2023-04-29T07:22:29;13.77;;;5.90;;
52106;SDS011;38105;52.968;5.974;2023-04-29T07:24:55;12.98;;;6.05;;
52106;SDS011;38105;52.968;5.974;2023-04-29T07:27:21;11.68;;;5.72;;
52106;SDS011;38105;52.968;5.974;2023-04-29T07:29:48;13.40;;;5.63;;
52106;SDS011;38105;52.968;5.974;2023-04-29T07:32:14;13.70;;;5.75;;
52106;SDS011;38105;52.968;5.974;2023-04-29T07:34:40;11.10;;;5.65;;
52106;SDS011;38105;52.968;5.974;2023-04-29T07:37:05;11.32;;;5.35;;
52106;SDS011;38105;52.968;5.974;2023-04-29T07:39:31;11.13;;;5.72;;
52106;SDS011;38105;52.968;5.974;2023-04-29T07:41:57;10.57;;;5.25;;
52106;SDS011;38105;52.968;5.974;2023-04-29T07:44:24;11.75;;;5.18;;
52106;SDS011;38105;52.968;5.974;2023-04-29T07:46:49;9.85;;;5.32;;
52106;SDS011;38105;52.968;5.974;2023-04-29T07:49:15;10.85;;;5.45;;
52106;SDS011;38105;52.968;5.974;2023-04-29T07:51:40;8.13;;;4.82;;
52106;SDS011;38105;52.968;5.974;2023-04-29T07:54:07;13.10;;;5.32;;
52106;SDS011;38105;52.968;5.974;2023-04-29T07:56:32;10.02;;;5.53;;
52106;SDS011;38105;52.968;5.974;2023-04-29T07:58:59;11.50;;;5.32;;
52106;SDS011;38105;52.968;5.974;2023-04-29T08:01:25;13.18;;;5.13;;
52106;SDS011;38105;52.968;5.974;2023-04-29T08:03:51;11.73;;;6.22;;
52106;SDS011;38105;52.968;5.974;2023-04-29T08:06:17;12.15;;;5.75;;
52106;SDS011;38105;52.968;5.974;2023-04-29T08:08:45;10.85;;;5.22;;
52106;SDS011;38105;52.968;5.974;2023-04-29T08:11:14;9.52;;;4.93;;
52106;SDS011;38105;52.968;5.974;2023-04-29T08:13:43;11.52;;;5.38;;
52106;SDS011;38105;52.968;5.974;2023-04-29T08:16:10;10.75;;;4.80;;
52106;SDS011;38105;52.968;5.974;2023-04-29T08:18:36;8.95;;;4.38;;
52106;SDS011;38105;52.968;5.974;2023-04-29T08:21:01;10.50;;;5.00;;
52106;SDS011;38105;52.968;5.974;2023-04-29T08:23:27;9.32;;;4.47;;
52106;SDS011;38105;52.968;5.974;2023-04-29T08:25:53;10.98;;;4.22;;
52106;SDS011;38105;52.968;5.974;2023-04-29T08:28:23;9.13;;;4.18;;
52106;SDS011;38105;52.968;5.974;2023-04-29T08:30:49;10.50;;;4.38;;
52106;SDS011;38105;52.968;5.974;2023-04-29T08:33:15;9.85;;;4.13;;
52106;SDS011;38105;52.968;5.974;2023-04-29T08:35:40;10.85;;;3.97;;
52106;SDS011;38105;52.968;5.974;2023-04-29T08:38:07;8.50;;;4.38;;
52106;SDS011;38105;52.968;5.974;2023-04-29T08:40:40;10.98;;;5.05;;
52106;SDS011;38105;52.968;5.974;2023-04-29T08:43:08;9.07;;;4.85;;
52106;SDS011;38105;52.968;5.974;2023-04-29T08:45:34;11.18;;;5.43;;
52106;SDS011;38105;52.968;5.974;2023-04-29T08:48:03;9.60;;;4.60;;
52106;SDS011;38105;52.968;5.974;2023-04-29T08:50:36;11.37;;;4.60;;
52106;SDS011;38105;52.968;5.974;2023-04-29T08:53:06;9.40;;;4.60;;
52106;SDS011;38105;52.968;5.974;2023-04-29T08:55:38;8.77;;;3.65;;
52106;SDS011;38105;52.968;5.974;2023-04-29T08:58:12;11.27;;;4.90;;
52106;SDS011;38105;52.968;5.974;2023-04-29T09:00:42;7.47;;;4.30;;
52106;SDS011;38105;52.968;5.974;2023-04-29T09:06:12;8.80;;;4.45;;
52106;SDS011;38105;52.968;5.974;2023-04-29T09:08:39;7.90;;;4.60;;
52106;SDS011;38105;52.968;5.974;2023-04-29T09:11:07;10.85;;;4.38;;
52106;SDS011;38105;52.968;5.974;2023-04-29T09:13:34;6.85;;;4.15;;
52106;SDS011;38105;52.968;5.974;2023-04-29T09:16:00;9.40;;;4.75;;
52106;SDS011;38105;52.968;5.974;2023-04-29T09:18:42;7.85;;;4.78;;
52106;SDS011;38105;52.968;5.974;2023-04-29T09:21:14;7.63;;;4.50;;
52106;SDS011;38105;52.968;5.974;2023-04-29T09:23:45;9.23;;;4.88;;
52106;SDS011;38105;52.968;5.974;2023-04-29T09:26:11;9.90;;;5.15;;
52106;SDS011;38105;52.968;5.974;2023-04-29T09:28:37;9.45;;;5.00;;
52106;SDS011;38105;52.968;5.974;2023-04-29T09:31:08;9.13;;;5.13;;
52106;SDS011;38105;52.968;5.974;2023-04-29T09:33:54;9.13;;;4.95;;
52106;SDS011;38105;52.968;5.974;2023-04-29T09:36:37;11.02;;;4.75;;
52106;SDS011;38105;52.968;5.974;2023-04-29T09:39:16;12.00;;;5.20;;
52106;SDS011;38105;52.968;5.974;2023-04-29T09:44:19;8.43;;;4.95;;
52106;SDS011;38105;52.968;5.974;2023-04-29T09:46:55;11.88;;;5.25;;
52106;SDS011;38105;52.968;5.974;2023-04-29T09:49:26;9.93;;;5.22;;
52106;SDS011;38105;52.968;5.974;2023-04-29T09:51:57;10.07;;;5.18;;
52106;SDS011;38105;52.968;5.974;2023-04-29T09:54:28;10.73;;;4.65;;
52106;SDS011;38105;52.968;5.974;2023-04-29T09:56:56;8.20;;;5.13;;
52106;SDS011;38105;52.968;5.974;2023-04-29T09:59:24;11.95;;;5.43;;
52106;SDS011;38105;52.968;5.974;2023-04-29T10:01:51;9.45;;;4.97;;
52106;SDS011;38105;52.968;5.974;2023-04-29T10:04:19;9.50;;;4.72;;
52106;SDS011;38105;52.968;5.974;2023-04-29T10:06:47;10.10;;;5.00;;
52106;SDS011;38105;52.968;5.974;2023-04-29T10:09:14;8.02;;;4.30;;
52106;SDS011;38105;52.968;5.974;2023-04-29T10:11:44;6.65;;;3.60;;
52106;SDS011;38105;52.968;5.974;2023-04-29T10:14:31;7.90;;;3.80;;
52106;SDS011;38105;52.968;5.974;2023-04-29T10:17:02;6.05;;;3.35;;
52106;SDS011;38105;52.968;5.974;2023-04-29T10:19:39;5.95;;;3.38;;
52106;SDS011;38105;52.968;5.974;2023-04-29T10:22:44;8.63;;;3.72;;
52106;SDS011;38105;52.968;5.974;2023-04-29T10:25:12;9.35;;;3.50;;
52106;SDS011;38105;52.968;5.974;2023-04-29T10:27:41;6.68;;;3.60;;
52106;SDS011;38105;52.968;5.974;2023-04-29T10:30:10;7.97;;;3.42;;
52106;SDS011;38105;52.968;5.974;2023-04-29T10:32:41;7.07;;;4.13;;
52106;SDS011;38105;52.968;5.974;2023-04-29T10:35:08;12.73;;;4.30;;
52106;SDS011;38105;52.968;5.974;2023-04-29T10:37:36;8.60;;;4.40;;
52106;SDS011;38105;52.968;5.974;2023-04-29T10:40:12;9.52;;;4.15;;
52106;SDS011;38105;52.968;5.974;2023-04-29T10:42:50;11.30;;;4.25;;
52106;SDS011;38105;52.968;5.974;2023-04-29T10:45:23;6.97;;;3.17;;
52106;SDS011;38105;52.968;5.974;2023-04-29T10:50:31;7.25;;;3.58;;
52106;SDS011;38105;52.968;5.974;2023-04-29T10:53:00;4.65;;;2.30;;
52106;SDS011;38105;52.968;5.974;2023-04-29T10:55:26;5.60;;;2.22;;
52106;SDS011;38105;52.968;5.974;2023-04-29T10:57:52;5.03;;;2.45;;
52106;SDS011;38105;52.968;5.974;2023-04-29T11:00:30;5.78;;;2.33;;
52106;SDS011;38105;52.968;5.974;2023-04-29T11:02:59;6.53;;;2.35;;
52106;SDS011;38105;52.968;5.974;2023-04-29T11:05:30;6.40;;;2.20;;
52106;SDS011;38105;52.968;5.974;2023-04-29T11:10:36;4.25;;;1.70;;
52106;SDS011;38105;52.968;5.974;2023-04-29T11:13:22;4.80;;;1.90;;
52106;SDS011;38105;52.968;5.974;2023-04-29T11:15:52;8.10;;;2.00;;
52106;SDS011;38105;52.968;5.974;2023-04-29T11:18:28;6.82;;;2.70;;
52106;SDS011;38105;52.968;5.974;2023-04-29T11:23:28;5.63;;;2.20;;
52106;SDS011;38105;52.968;5.974;2023-04-29T11:25:54;4.07;;;1.88;;
52106;SDS011;38105;52.968;5.974;2023-04-29T11:28:21;5.88;;;2.08;;
52106;SDS011;38105;52.968;5.974;2023-04-29T11:30:51;2.67;;;1.90;;
52106;SDS011;38105;52.968;5.974;2023-04-29T11:33:21;5.00;;;2.08;;
52106;SDS011;38105;52.968;5.974;2023-04-29T11:35:47;6.50;;;1.90;;
52106;SDS011;38105;52.968;5.974;2023-04-29T11:38:13;6.70;;;1.90;;
52106;SDS011;38105;52.968;5.974;2023-04-29T11:40:47;4.45;;;1.77;;
52106;SDS011;38105;52.968;5.974;2023-04-29T11:43:17;4.10;;;1.85;;
52106;SDS011;38105;52.968;5.974;2023-04-29T11:45:44;5.53;;;1.90;;
52106;SDS011;38105;52.968;5.974;2023-04-29T11:48:31;7.47;;;2.08;;
52106;SDS011;38105;52.968;5.974;2023-04-29T11:50:56;4.30;;;1.42;;
52106;SDS011;38105;52.968;5.974;2023-04-29T11:53:24;5.03;;;1.70;;
52106;SDS011;38105;52.968;5.974;2023-04-29T11:55:52;3.40;;;1.83;;
52106;SDS011;38105;52.968;5.974;2023-04-29T11:58:22;2.67;;;1.60;;
52106;SDS011;38105;52.968;5.974;2023-04-29T12:00:48;5.82;;;1.90;;
52106;SDS011;38105;52.968;5.974;2023-04-29T12:03:16;7.13;;;2.35;;
52106;SDS011;38105;52.968;5.974;2023-04-29T12:08:19;5.60;;;2.38;;
52106;SDS011;38105;52.968;5.974;2023-04-29T12:10:48;6.75;;;2.15;;
52106;SDS011;38105;52.968;5.974;2023-04-29T12:13:15;5.75;;;2.10;;
52106;SDS011;38105;52.968;5.974;2023-04-29T12:15:42;6.97;;;2.20;;
52106;SDS011;38105;52.968;5.974;2023-04-29T12:18:13;5.30;;;1.90;;
52106;SDS011;38105;52.968;5.974;2023-04-29T12:20:39;6.38;;;2.42;;
52106;SDS011;38105;52.968;5.974;2023-04-29T12:23:12;5.47;;;2.20;;
52106;SDS011;38105;52.968;5.974;2023-04-29T12:25:38;7.47;;;2.72;;
52106;SDS011;38105;52.968;5.974;2023-04-29T12:28:11;5.38;;;2.28;;
52106;SDS011;38105;52.968;5.974;2023-04-29T12:30:37;4.43;;;2.10;;
52106;SDS011;38105;52.968;5.974;2023-04-29T12:33:02;6.13;;;2.28;;
52106;SDS011;38105;52.968;5.974;2023-04-29T12:35:28;5.10;;;1.83;;
52106;SDS011;38105;52.968;5.974;2023-04-29T12:37:57;4.95;;;2.17;;
52106;SDS011;38105;52.968;5.974;2023-04-29T12:40:23;4.07;;;1.95;;
52106;SDS011;38105;52.968;5.974;2023-04-29T12:42:49;5.35;;;2.30;;
52106;SDS011;38105;52.968;5.974;2023-04-29T12:45:26;5.07;;;2.00;;
52106;SDS011;38105;52.968;5.974;2023-04-29T12:47:55;5.88;;;1.50;;
52106;SDS011;38105;52.968;5.974;2023-04-29T12:50:32;5.38;;;1.80;;
52106;SDS011;38105;52.968;5.974;2023-04-29T12:52:59;7.70;;;1.98;;
52106;SDS011;38105;52.968;5.974;2023-04-29T12:55:25;4.40;;;1.98;;
52106;SDS011;38105;52.968;5.974;2023-04-29T12:57:51;5.05;;;1.90;;
52106;SDS011;38105;52.968;5.974;2023-04-29T13:00:17;5.35;;;1.40;;
52106;SDS011;38105;52.968;5.974;2023-04-29T13:02:44;2.83;;;1.13;;
52106;SDS011;38105;52.968;5.974;2023-04-29T13:05:11;5.03;;;0.93;;
52106;SDS011;38105;52.968;5.974;2023-04-29T13:07:37;4.07;;;1.30;;
52106;SDS011;38105;52.968;5.974;2023-04-29T13:10:03;3.17;;;1.35;;
52106;SDS011;38105;52.968;5.974;2023-04-29T13:12:30;3.20;;;0.90;;
52106;SDS011;38105;52.968;5.974;2023-04-29T13:14:56;4.30;;;0.90;;
52106;SDS011;38105;52.968;5.974;2023-04-29T13:17:22;4.75;;;1.20;;
52106;SDS011;38105;52.968;5.974;2023-04-29T13:19:48;4.75;;;0.80;;
52106;SDS011;38105;52.968;5.974;2023-04-29T13:22:15;4.35;;;1.13;;
52106;SDS011;38105;52.968;5.974;2023-04-29T13:24:40;4.82;;;0.98;;
52106;SDS011;38105;52.968;5.974;2023-04-29T13:27:06;3.20;;;0.68;;
52106;SDS011;38105;52.968;5.974;2023-04-29T13:29:32;2.05;;;0.80;;
52106;SDS011;38105;52.968;5.974;2023-04-29T13:31:57;2.72;;;0.93;;
52106;SDS011;38105;52.968;5.974;2023-04-29T13:34:23;3.35;;;1.00;;
52106;SDS011;38105;52.968;5.974;2023-04-29T13:36:49;2.90;;;1.13;;
52106;SDS011;38105;52.968;5.974;2023-04-29T13:39:14;3.05;;;1.13;;
52106;SDS011;38105;52.968;5.974;2023-04-29T13:41:41;4.75;;;0.85;;
52106;SDS011;38105;52.968;5.974;2023-04-29T13:44:07;2.85;;;1.10;;
52106;SDS011;38105;52.968;5.974;2023-04-29T13:46:32;2.47;;;1.10;;
52106;SDS011;38105;52.968;5.974;2023-04-29T13:48:58;3.17;;;1.10;;
52106;SDS011;38105;52.968;5.974;2023-04-29T13:51:24;4.22;;;1.23;;
52106;SDS011;38105;52.968;5.974;2023-04-29T13:53:50;2.70;;;1.45;;
52106;SDS011;38105;52.968;5.974;2023-04-29T13:56:15;4.03;;;1.10;;
52106;SDS011;38105;52.968;5.974;2023-04-29T13:58:41;3.50;;;1.30;;
52106;SDS011;38105;52.968;5.974;2023-04-29T14:01:07;3.85;;;1.40;;
52106;SDS011;38105;52.968;5.974;2023-04-29T14:03:32;4.85;;;1.55;;
52106;SDS011;38105;52.968;5.974;2023-04-29T14:05:58;4.97;;;1.70;;
52106;SDS011;38105;52.968;5.974;2023-04-29T14:08:25;5.38;;;1.27;;
52106;SDS011;38105;52.968;5.974;2023-04-29T14:10:50;6.63;;;1.02;;
52106;SDS011;38105;52.968;5.974;2023-04-29T14:13:16;2.90;;;1.23;;
52106;SDS011;38105;52.968;5.974;2023-04-29T14:15:42;6.30;;;1.38;;
52106;SDS011;38105;52.968;5.974;2023-04-29T14:18:07;5.55;;;1.17;;
52106;SDS011;38105;52.968;5.974;2023-04-29T14:20:34;3.60;;;1.52;;
52106;SDS011;38105;52.968;5.974;2023-04-29T14:23:00;3.42;;;1.20;;
52106;SDS011;38105;52.968;5.974;2023-04-29T14:25:26;7.10;;;1.55;;
52106;SDS011;38105;52.968;5.974;2023-04-29T14:27:51;3.80;;;1.55;;
52106;SDS011;38105;52.968;5.974;2023-04-29T14:30:17;3.60;;;1.50;;
52106;SDS011;38105;52.968;5.974;2023-04-29T14:32:43;4.70;;;1.52;;
52106;SDS011;38105;52.968;5.974;2023-04-29T14:35:09;5.95;;;2.10;;
52106;SDS011;38105;52.968;5.974;2023-04-29T14:37:34;7.40;;;1.98;;
52106;SDS011;38105;52.968;5.974;2023-04-29T14:40:00;4.72;;;1.63;;
52106;SDS011;38105;52.968;5.974;2023-04-29T14:42:26;5.10;;;1.77;;
52106;SDS011;38105;52.968;5.974;2023-04-29T14:44:51;5.57;;;2.10;;
52106;SDS011;38105;52.968;5.974;2023-04-29T14:47:18;4.43;;;2.00;;
52106;SDS011;38105;52.968;5.974;2023-04-29T14:49:44;4.30;;;2.10;;
52106;SDS011;38105;52.968;5.974;2023-04-29T14:52:10;4.25;;;2.20;;
52106;SDS011;38105;52.968;5.974;2023-04-29T14:54:35;4.93;;;2.55;;
52106;SDS011;38105;52.968;5.974;2023-04-29T14:57:01;4.95;;;2.67;;
52106;SDS011;38105;52.968;5.974;2023-04-29T14:59:27;6.30;;;2.60;;
52106;SDS011;38105;52.968;5.974;2023-04-29T15:01:54;7.63;;;3.08;;
52106;SDS011;38105;52.968;5.974;2023-04-29T15:04:20;6.90;;;2.70;;
52106;SDS011;38105;52.968;5.974;2023-04-29T15:06:47;5.40;;;2.75;;
52106;SDS011;38105;52.968;5.974;2023-04-29T15:09:13;5.95;;;3.13;;